Time;durP1;ratioP1;P1;durP2;ratioP2;P2;SDS_P1;SDS_P2;PMS_P1;PMS_P2;Temp;Humidity;BMP_temperature;BMP_pressure;BME280_temperature;BME280_humidity;BME280_pressure;Samples;Min_cycle;Max_cycle;Signal;HPM_P1;HPM_P2
2022/11/08 00:02:11;;;;;;;54.60;28.57;;;;;;;-141.28;100.00;49957.31;5114501;28;20767;-81
2022/11/08 00:04:38;;;;;;;48.17;26.60;;;;;;;-141.28;100.00;49957.31;5109443;28;20731;-78
2022/11/08 00:15:19;;;;;;;60.90;31.70;;;;;;;-141.28;100.00;49867.03;5116790;28;20225;-76
2022/11/08 00:17:46;;;;;;;43.17;27.53;;;;;;;-141.28;100.00;49874.88;5114240;28;20242;-77
2022/11/08 00:20:13;;;;;;;46.17;26.93;;;;;;;-141.28;100.00;49955.34;5112224;28;20680;-79
2022/11/08 00:22:42;;;;;;;45.57;26.63;;;;;;;-141.28;100.00;50004.41;5107375;28;20677;-77
2022/11/08 00:25:11;;;;;;;48.73;26.50;;;;;;;-141.28;100.00;50035.81;5113200;28;20207;-77
2022/11/08 00:27:38;;;;;;;41.30;26.63;;;;;;;-141.28;100.00;49937.69;5100404;28;20207;-77
2022/11/08 00:30:06;;;;;;;47.33;26.83;;;;;;;-141.28;100.00;50059.34;5113624;28;20210;-75
2022/11/08 00:32:33;;;;;;;47.80;26.80;;;;;;;-141.28;100.00;50029.91;5113778;28;20203;-78
2022/11/08 00:35:00;;;;;;;44.37;26.77;;;;;;;-141.28;100.00;50088.78;5113723;28;20206;-76
2022/11/08 00:37:28;;;;;;;42.83;26.13;;;;;;;-141.28;100.00;50061.31;5113162;28;20615;-78
2022/11/08 00:39:56;;;;;;;45.97;26.17;;;;;;;-141.28;100.00;50043.66;5112841;28;20198;-77
2022/11/08 00:42:24;;;;;;;50.40;26.53;;;;;;;-141.28;100.00;50047.59;5113521;28;20194;-81
2022/11/08 00:44:51;;;;;;;48.87;27.23;;;;;;;-141.28;100.00;50033.84;5112504;28;20229;-77
2022/11/08 00:47:18;;;;;;;48.67;28.70;;;;;;;-141.28;100.00;50037.78;5112821;28;20214;-77
2022/11/08 00:49:45;;;;;;;46.90;27.67;;;;;;;-141.28;100.00;50020.09;5113227;28;20267;-79
2022/11/08 00:52:12;;;;;;;46.13;28.27;;;;;;;-141.28;100.00;50039.72;5113215;28;20520;-79
2022/11/08 00:54:39;;;;;;;45.97;27.50;;;;;;;-141.28;100.00;50035.81;5113271;28;20206;-77
2022/11/08 00:57:06;;;;;;;44.60;27.30;;;;;;;-141.28;100.00;50035.81;5113523;28;20209;-74
2022/11/08 00:59:35;;;;;;;47.57;26.07;;;;;;;-141.28;100.00;49959.25;5124137;28;20224;-75
2022/11/08 01:02:02;;;;;;;45.10;27.17;;;;;;;-141.28;100.00;50043.66;5119059;28;20248;-79
2022/11/08 01:04:29;;;;;;;43.80;27.10;;;;;;;-141.28;100.00;50035.81;5115192;28;20210;-77
2022/11/08 01:06:56;;;;;;;47.53;27.13;;;;;;;-141.28;100.00;50063.28;5115851;28;20198;-77
2022/11/08 01:09:23;;;;;;;51.27;28.27;;;;;;;-141.28;100.00;50020.09;5113020;28;20223;-76
2022/11/08 01:11:49;;;;;;;45.50;27.73;;;;;;;-141.28;100.00;50067.22;5112497;28;20195;-78
2022/11/08 01:14:16;;;;;;;44.07;26.63;;;;;;;-141.28;100.00;50086.84;5113281;28;20280;-79
2022/11/08 01:16:45;;;;;;;45.47;27.10;;;;;;;-141.28;100.00;50102.53;5112605;28;20223;-78
2022/11/08 01:19:11;;;;;;;45.23;26.90;;;;;;;-141.28;100.00;50102.53;5112595;28;20642;-79
2022/11/08 01:21:38;;;;;;;45.87;27.87;;;;;;;-141.28;100.00;50124.13;5112648;28;20298;-78
2022/11/08 01:24:07;;;;;;;44.27;28.13;;;;;;;-141.28;100.00;50086.84;5112138;28;20202;-80
2022/11/08 01:26:34;;;;;;;54.67;27.43;;;;;;;-141.28;100.00;50063.28;5113362;28;20203;-78
2022/11/08 01:29:01;;;;;;;50.60;29.00;;;;;;;-141.28;100.00;50082.91;5112223;28;20210;-79
2022/11/08 01:31:30;;;;;;;49.20;27.87;;;;;;;-141.28;100.00;50082.91;5111585;28;20190;-77
2022/11/08 01:33:59;;;;;;;48.83;28.47;;;;;;;-141.28;100.00;49908.25;5117368;28;20256;-78
2022/11/08 01:36:28;;;;;;;51.47;28.77;;;;;;;-141.28;100.00;49996.56;5113038;28;20194;-80
2022/11/08 01:38:55;;;;;;;57.37;31.27;;;;;;;-141.28;100.00;50059.34;5112109;28;20234;-80
2022/11/08 01:41:24;;;;;;;50.67;28.77;;;;;;;-141.28;100.00;50037.78;5112498;28;20260;-78
2022/11/08 01:43:52;;;;;;;56.10;28.87;;;;;;;-141.28;100.00;50020.09;5112104;28;20206;-77
2022/11/08 01:46:38;;;;;;;47.37;28.77;;;;;;;-141.28;100.00;49976.94;5112386;28;20251;-76
2022/11/08 01:49:45;;;;;;;51.60;28.77;;;;;;;-141.28;100.00;49949.44;5112945;28;20190;-78
2022/11/08 01:52:23;;;;;;;47.33;28.40;;;;;;;-141.28;100.00;49859.19;5010003;28;20589;-77
2022/11/08 01:55:06;;;;;;;46.53;29.20;;;;;;;-141.28;100.00;49812.06;5011677;28;20598;-75
2022/11/08 01:57:38;;;;;;;57.07;28.57;;;;;;;-141.28;100.00;49733.56;5067618;28;20195;-79
2022/11/08 02:00:09;;;;;;;47.50;29.10;;;;;;;-141.28;100.00;49831.69;5113936;28;20239;-80
2022/11/08 02:02:40;;;;;;;50.73;30.20;;;;;;;-141.28;100.00;49874.88;5113693;28;20207;-75
2022/11/08 02:05:24;;;;;;;46.50;28.67;;;;;;;-141.28;100.00;49863.09;5112272;28;20278;-76
2022/11/08 02:07:56;;;;;;;54.90;30.90;;;;;;;-141.28;100.00;49874.88;5106086;28;20263;-76
2022/11/08 02:10:29;;;;;;;53.50;30.47;;;;;;;-141.28;100.00;49874.88;5113473;28;20306;-79
2022/11/08 02:12:56;;;;;;;50.93;28.73;;;;;;;-141.28;100.00;49874.88;5112526;28;20260;-76
2022/11/08 02:15:25;;;;;;;55.43;31.30;;;;;;;-141.28;100.00;49894.50;5106225;28;20212;-76
2022/11/08 02:17:53;;;;;;;47.67;30.40;;;;;;;-141.28;100.00;49933.75;5105640;28;20311;-75
2022/11/08 02:20:21;;;;;;;53.07;31.13;;;;;;;-141.28;100.00;49945.53;5112116;28;20284;-76
2022/11/08 02:22:55;;;;;;;63.37;33.10;;;;;;;-141.28;100.00;49953.38;5112125;28;20211;-79
2022/11/08 02:25:24;;;;;;;59.37;32.27;;;;;;;-141.28;100.00;49870.94;5111811;28;20263;-77
2022/11/08 02:27:50;;;;;;;52.27;30.47;;;;;;;-141.28;100.00;49900.38;5111855;28;20207;-78
2022/11/08 02:30:18;;;;;;;57.30;31.23;;;;;;;-141.28;100.00;49937.69;5111185;28;20202;-75
2022/11/08 02:32:46;;;;;;;60.80;32.10;;;;;;;-141.28;100.00;49988.69;5110842;28;20710;-77
2022/11/08 02:35:17;;;;;;;60.77;31.83;;;;;;;-141.28;100.00;50016.19;5111944;28;20210;-76
2022/11/08 02:37:45;;;;;;;58.03;30.43;;;;;;;-141.28;100.00;49914.13;5111979;28;20206;-80
2022/11/08 02:40:12;;;;;;;52.13;30.50;;;;;;;-141.28;100.00;50010.28;5111723;28;20194;-77
2022/11/08 02:42:40;;;;;;;58.90;31.43;;;;;;;-141.28;100.00;50004.41;5112417;28;20199;-79
2022/11/08 02:45:08;;;;;;;54.63;30.30;;;;;;;-141.28;100.00;49996.56;5111573;28;20582;-77
2022/11/08 02:47:35;;;;;;;57.93;31.27;;;;;;;-141.28;100.00;50002.44;5111453;28;20198;-78
2022/11/08 02:50:02;;;;;;;60.03;30.17;;;;;;;-141.28;100.00;50022.06;5112346;28;20198;-75
2022/11/08 02:52:29;;;;;;;51.77;30.17;;;;;;;-141.28;100.00;50008.34;5114000;28;20195;-77
2022/11/08 02:54:56;;;;;;;58.77;30.90;;;;;;;-141.28;100.00;50027.97;5115575;28;20195;-75
2022/11/08 02:57:23;;;;;;;53.50;27.97;;;;;;;-141.28;100.00;50027.97;5118908;28;20210;-76
2022/11/08 02:59:53;;;;;;;53.43;29.27;;;;;;;-141.28;100.00;50043.66;5119499;28;20234;-74
2022/11/08 03:02:19;;;;;;;51.47;29.70;;;;;;;-141.28;100.00;50039.72;5119696;28;20722;-76
2022/11/08 03:04:46;;;;;;;51.97;30.20;;;;;;;-141.28;100.00;50039.72;5120159;28;20656;-74
2022/11/08 03:07:13;;;;;;;53.80;30.10;;;;;;;-141.28;100.00;50055.44;5107852;28;20203;-75
2022/11/08 03:09:40;;;;;;;53.53;30.00;;;;;;;-141.28;100.00;50069.16;5112700;28;20747;-80
2022/11/08 03:12:07;;;;;;;51.80;29.07;;;;;;;-141.28;100.00;50059.34;5116659;28;20642;-77
2022/11/08 03:14:34;;;;;;;52.00;29.30;;;;;;;-141.28;100.00;50065.25;5115773;28;20206;-75
2022/11/08 03:17:03;;;;;;;50.53;28.73;;;;;;;-141.28;100.00;50067.22;5115779;28;20279;-77
2022/11/08 03:19:30;;;;;;;53.70;29.63;;;;;;;-141.28;100.00;50059.34;5115627;28;20291;-78
2022/11/08 03:21:57;;;;;;;48.40;27.77;;;;;;;-141.28;100.00;50057.41;5115424;28;20271;-76
2022/11/08 03:24:23;;;;;;;48.23;28.83;;;;;;;-141.28;100.00;50059.34;5115163;28;20331;-76
2022/11/08 03:26:50;;;;;;;52.47;29.03;;;;;;;-141.28;100.00;50057.41;5115395;28;20199;-77
2022/11/08 03:29:17;;;;;;;48.83;28.80;;;;;;;-141.28;100.00;50037.78;5114219;28;20195;-77
2022/11/08 03:31:44;;;;;;;54.77;29.43;;;;;;;-141.28;100.00;50031.88;5115109;28;20214;-76
2022/11/08 03:34:12;;;;;;;59.87;30.20;;;;;;;-141.28;100.00;49996.56;5114577;28;20693;-76
2022/11/08 03:36:39;;;;;;;57.17;30.37;;;;;;;-141.28;100.00;49990.66;5115105;28;20207;-76
2022/11/08 03:39:06;;;;;;;55.97;29.07;;;;;;;-141.28;100.00;49988.69;5114638;28;20587;-78
2022/11/08 03:41:33;;;;;;;53.90;29.30;;;;;;;-141.28;100.00;49969.06;5114925;28;20210;-76
2022/11/08 03:43:59;;;;;;;48.13;28.60;;;;;;;-141.28;100.00;49847.41;5114641;28;20210;-75
2022/11/08 03:46:26;;;;;;;53.47;30.20;;;;;;;-141.28;100.00;49959.25;5114744;28;20233;-77
2022/11/08 03:48:53;;;;;;;52.33;29.13;;;;;;;-141.28;100.00;49937.69;5114374;28;20256;-76
2022/11/08 03:51:21;;;;;;;50.10;29.03;;;;;;;-141.28;100.00;49925.91;5118743;28;20199;-75
2022/11/08 03:53:48;;;;;;;56.40;29.27;;;;;;;-141.28;100.00;49925.91;5118377;28;20637;-75
2022/11/08 03:56:15;;;;;;;50.00;28.70;;;;;;;-141.28;100.00;49921.97;5117429;28;20274;-78
2022/11/08 03:58:42;;;;;;;53.63;30.57;;;;;;;-141.28;100.00;49957.31;5116347;28;20223;-79
2022/11/08 04:01:09;;;;;;;50.10;28.90;;;;;;;-141.28;100.00;49941.59;5114631;28;20196;-76
2022/11/08 04:03:35;;;;;;;54.47;29.77;;;;;;;-141.28;100.00;49941.59;5114894;28;20238;-75
2022/11/08 04:06:03;;;;;;;61.77;30.27;;;;;;;-141.28;100.00;49941.59;5115946;28;20211;-77
2022/11/08 04:08:31;;;;;;;50.10;28.47;;;;;;;-141.28;100.00;49921.97;5110874;28;20265;-76
2022/11/08 04:15:13;;;;;;;51.93;29.37;;;;;;;-141.28;100.00;49910.19;5107034;28;20206;-77
2022/11/08 04:16:33;;;;;;;49.03;27.40;;;;;;;-141.28;100.00;49706.09;5114166;28;20237;-75
2022/11/08 04:21:46;;;;;;;50.77;28.30;;;;;;;-141.28;100.00;49782.63;5101028;28;20264;-77
2022/11/08 04:24:14;;;;;;;56.13;29.90;;;;;;;-141.28;100.00;49659.00;5113467;28;20568;-80
2022/11/08 04:26:42;;;;;;;44.63;26.33;;;;;;;-141.28;100.00;49812.06;5113836;28;20615;-81
2022/11/08 04:29:09;;;;;;;48.70;27.10;;;;;;;-141.28;100.00;49874.88;5113047;28;20283;-78
2022/11/08 04:31:37;;;;;;;46.00;28.10;;;;;;;-141.28;100.00;49886.66;5113652;28;20199;-77
2022/11/08 04:34:04;;;;;;;49.43;29.13;;;;;;;-141.28;100.00;49933.75;5114725;28;20256;-79
2022/11/08 04:36:31;;;;;;;48.33;27.20;;;;;;;-141.28;100.00;49992.63;5114580;28;20628;-75
2022/11/08 04:38:59;;;;;;;50.47;29.10;;;;;;;-141.28;100.00;49990.66;5113212;28;20218;-79
2022/11/08 04:41:27;;;;;;;50.00;29.60;;;;;;;-141.28;100.00;50004.41;5114217;28;20657;-80
2022/11/08 04:43:56;;;;;;;53.93;29.90;;;;;;;-141.28;100.00;49969.06;5113648;28;20210;-78
2022/11/08 04:46:25;;;;;;;48.77;29.20;;;;;;;-141.28;100.00;49976.94;5113200;28;20730;-76
2022/11/08 04:48:54;;;;;;;47.70;27.53;;;;;;;-141.28;100.00;49939.63;5113326;28;20252;-75
2022/11/08 04:51:23;;;;;;;55.47;28.60;;;;;;;-141.28;100.00;49947.50;5113571;28;20206;-76
2022/11/08 04:53:50;;;;;;;45.77;28.47;;;;;;;-141.28;100.00;49945.53;5113560;28;20577;-76
2022/11/08 04:56:19;;;;;;;46.17;28.80;;;;;;;-141.28;100.00;49910.19;5113269;28;20576;-77
2022/11/08 04:58:50;;;;;;;51.93;30.47;;;;;;;-141.28;100.00;49931.78;5113002;28;20517;-77
2022/11/08 05:01:19;;;;;;;45.27;29.23;;;;;;;-141.28;100.00;49925.91;5112775;28;20206;-76
2022/11/08 05:03:47;;;;;;;48.10;28.17;;;;;;;-141.28;100.00;49863.09;5112977;28;20199;-78
2022/11/08 05:06:16;;;;;;;46.40;28.53;;;;;;;-141.28;100.00;49894.50;5099680;28;20207;-77
2022/11/08 05:08:43;;;;;;;47.37;28.67;;;;;;;-141.28;100.00;49902.34;5099888;28;20227;-76
2022/11/08 05:11:12;;;;;;;47.73;28.83;;;;;;;-141.28;100.00;49890.56;5113015;28;20219;-75
2022/11/08 05:13:40;;;;;;;50.53;29.30;;;;;;;-141.28;100.00;49906.28;5113666;28;20198;-79
2022/11/08 05:16:12;;;;;;;51.67;30.37;;;;;;;-141.28;100.00;49870.94;5112337;28;20238;-76
2022/11/08 05:18:40;;;;;;;51.27;29.47;;;;;;;-141.28;100.00;49878.81;5113445;28;20280;-76
2022/11/08 05:23:52;;;;;;;55.03;30.87;;;;;;;-141.28;100.00;49784.59;5113701;28;20213;-78
2022/11/08 05:26:20;;;;;;;52.03;29.53;;;;;;;-141.28;100.00;49721.81;5116245;28;20207;-75
2022/11/08 05:28:47;;;;;;;47.77;30.03;;;;;;;-141.28;100.00;49725.72;5112658;28;20199;-79
2022/11/08 05:31:16;;;;;;;58.17;31.17;;;;;;;-141.28;100.00;49788.53;5111492;28;20199;-74
2022/11/08 05:33:44;;;;;;;51.67;31.23;;;;;;;-141.28;100.00;49810.13;5100560;28;20218;-79
2022/11/08 05:36:13;;;;;;;54.50;31.37;;;;;;;-141.28;100.00;49798.34;5111218;28;20749;-78
2022/11/08 05:38:40;;;;;;;49.83;30.50;;;;;;;-141.28;100.00;49790.50;5113182;28;20295;-77
2022/11/08 05:41:10;;;;;;;49.17;30.63;;;;;;;-141.28;100.00;49800.31;5112725;28;20191;-77
2022/11/08 05:43:37;;;;;;;51.53;30.87;;;;;;;-141.28;100.00;49768.91;5115197;28;20634;-76
2022/11/08 05:46:04;;;;;;;51.67;31.20;;;;;;;-141.28;100.00;49812.06;5122623;28;20195;-75
2022/11/08 05:48:33;;;;;;;54.33;31.63;;;;;;;-141.28;100.00;49814.03;5118131;28;20203;-77
2022/11/08 05:51:01;;;;;;;60.20;32.00;;;;;;;-141.28;100.00;49825.81;5113469;28;20202;-77
2022/11/08 05:53:28;;;;;;;54.00;32.10;;;;;;;-141.28;100.00;49837.59;5112612;28;20673;-75
2022/11/08 05:56:01;;;;;;;55.27;32.53;;;;;;;-141.28;100.00;49827.78;5112576;28;20206;-75
2022/11/08 05:58:28;;;;;;;52.87;32.97;;;;;;;-141.28;100.00;49821.88;5112214;28;20281;-77
2022/11/08 06:01:00;;;;;;;50.20;31.37;;;;;;;-141.28;100.00;49776.75;5112340;28;20203;-78
2022/11/08 06:03:27;;;;;;;56.77;33.67;;;;;;;-141.28;100.00;49831.69;5112642;28;20285;-76
2022/11/08 06:06:02;;;;;;;72.60;45.73;;;;;;;-141.28;100.00;49812.06;5112251;28;20203;-75
2022/11/08 06:08:28;;;;;;;69.77;42.10;;;;;;;-141.28;100.00;49659.00;5111891;28;20194;-76
2022/11/08 06:11:03;;;;;;;60.87;34.83;;;;;;;-141.28;100.00;49749.28;5112109;28;20199;-78
2022/11/08 06:13:31;;;;;;;55.80;32.40;;;;;;;-141.28;100.00;49782.63;5111943;28;20651;-77
2022/11/08 06:16:00;;;;;;;55.10;32.97;;;;;;;-141.28;100.00;49808.16;5111621;28;20246;-78
2022/11/08 06:18:28;;;;;;;58.93;34.23;;;;;;;-141.28;100.00;49843.47;5111938;28;20223;-77
2022/11/08 06:20:58;;;;;;;62.77;35.77;;;;;;;-141.28;100.00;49808.16;5111763;28;20267;-79
2022/11/08 06:23:25;;;;;;;62.37;35.53;;;;;;;-141.28;100.00;49886.66;5111194;28;20688;-76
2022/11/08 06:25:51;;;;;;;60.77;34.73;;;;;;;-141.28;100.00;49847.41;5111199;28;20271;-78
2022/11/08 06:28:19;;;;;;;76.57;44.03;;;;;;;-141.28;100.00;49851.31;5111737;28;20199;-76
2022/11/08 06:30:47;;;;;;;92.33;51.47;;;;;;;-141.28;100.00;49831.69;5110848;28;20621;-77
2022/11/08 06:33:14;;;;;;;83.90;44.37;;;;;;;-141.28;100.00;49816.00;5111826;28;20251;-77
2022/11/08 06:35:41;;;;;;;77.93;41.90;;;;;;;-141.28;100.00;49816.00;5111077;28;20198;-75
2022/11/08 06:38:10;;;;;;;69.43;39.87;;;;;;;-141.28;100.00;49812.06;5111915;28;20198;-80
2022/11/08 06:40:37;;;;;;;78.57;40.33;;;;;;;-141.28;100.00;49821.88;5111357;28;20280;-75
2022/11/08 06:43:04;;;;;;;72.57;38.77;;;;;;;-141.28;100.00;49827.78;5113483;28;20256;-75
2022/11/08 06:45:32;;;;;;;65.87;35.43;;;;;;;-141.28;100.00;49796.38;5119734;28;20260;-78
2022/11/08 06:48:00;;;;;;;72.73;35.00;;;;;;;-141.28;100.00;49823.84;5115979;28;20194;-76
2022/11/08 06:50:27;;;;;;;67.40;35.60;;;;;;;-141.28;100.00;49823.84;5115490;28;20210;-75
2022/11/08 06:52:58;;;;;;;63.33;35.63;;;;;;;-141.28;100.00;49796.38;5115782;28;20206;-74
2022/11/08 06:55:26;;;;;;;63.90;35.50;;;;;;;-141.28;100.00;49794.41;5115496;28;20283;-79
2022/11/08 06:57:53;;;;;;;59.83;33.37;;;;;;;-141.28;100.00;49814.03;5115560;28;20209;-79
2022/11/08 07:00:21;;;;;;;61.60;33.70;;;;;;;-141.28;100.00;49833.66;5116065;28;20302;-76
2022/11/08 07:02:52;;;;;;;59.90;34.67;;;;;;;-141.28;100.00;49827.78;5115608;28;20207;-76
2022/11/08 07:05:19;;;;;;;60.07;34.07;;;;;;;-141.28;100.00;49831.69;5115290;28;20677;-77
2022/11/08 07:07:50;;;;;;;59.03;34.20;;;;;;;-141.28;100.00;49861.13;5115409;28;20203;-77
2022/11/08 07:10:18;;;;;;;58.67;35.10;;;;;;;-141.28;100.00;49831.69;5115125;28;20325;-77
2022/11/08 07:12:49;;;;;;;64.33;36.30;;;;;;;-141.28;100.00;49859.19;5115125;28;20203;-78
2022/11/08 07:15:17;;;;;;;56.33;33.50;;;;;;;-141.28;100.00;49880.75;5115224;28;20282;-80
2022/11/08 07:17:43;;;;;;;57.83;33.20;;;;;;;-141.28;100.00;49898.44;5115773;28;20619;-77
2022/11/08 07:20:11;;;;;;;60.03;36.10;;;;;;;-141.28;100.00;49916.09;5102381;28;20230;-76
2022/11/08 07:22:38;;;;;;;61.63;35.77;;;;;;;-141.28;100.00;49949.44;5114829;28;20293;-75
2022/11/08 07:25:06;;;;;;;67.30;37.40;;;;;;;-141.28;100.00;49916.09;5115200;28;20662;-76
2022/11/08 07:27:33;;;;;;;58.30;35.43;;;;;;;-141.28;100.00;49827.78;5114842;28;20199;-76
2022/11/08 07:30:02;;;;;;;60.10;34.03;;;;;;;-141.28;100.00;49855.25;5114935;28;20199;-76
2022/11/08 07:32:29;;;;;;;60.10;34.27;;;;;;;-141.28;100.00;49859.19;5115278;28;20199;-75
2022/11/08 07:34:56;;;;;;;51.73;32.13;;;;;;;-141.28;100.00;49861.13;5116183;28;20211;-76
2022/11/08 07:37:23;;;;;;;58.43;34.30;;;;;;;-141.28;100.00;49753.19;5114573;28;20203;-78
2022/11/08 07:39:50;;;;;;;59.27;33.23;;;;;;;-141.28;100.00;49814.03;5114635;28;20708;-76
2022/11/08 07:42:17;;;;;;;61.03;35.53;;;;;;;-141.28;100.00;49778.72;5114304;28;20210;-77
2022/11/08 07:44:44;;;;;;;61.23;35.20;;;;;;;-141.28;100.00;49764.97;5114511;28;20241;-79
2022/11/08 07:47:13;;;;;;;51.23;32.50;;;;;;;-141.28;100.00;49812.06;5114646;28;20692;-78
2022/11/08 07:49:40;;;;;;;62.27;35.03;;;;;;;-141.28;100.00;49804.22;5114681;28;20267;-77
2022/11/08 07:52:07;;;;;;;51.90;33.77;;;;;;;-141.28;100.00;49831.69;5114351;28;20252;-78
2022/11/08 07:54:34;;;;;;;59.07;34.40;;;;;;;-141.28;100.00;49831.69;5113898;28;20293;-77
2022/11/08 07:57:01;;;;;;;59.93;35.80;;;;;;;-141.28;100.00;49806.19;5114367;28;20195;-76
2022/11/08 07:59:28;;;;;;;58.37;37.00;;;;;;;-141.28;100.00;49819.94;5115293;28;20235;-78
2022/11/08 08:01:55;;;;;;;62.03;36.03;;;;;;;-141.28;100.00;49814.03;5114200;28;20195;-76
2022/11/08 08:04:24;;;;;;;53.33;32.83;;;;;;;-141.28;100.00;49790.50;5116872;28;20249;-78
2022/11/08 08:06:51;;;;;;;53.87;32.30;;;;;;;-141.28;100.00;49786.56;5114786;28;20199;-75
2022/11/08 08:09:18;;;;;;;59.33;34.97;;;;;;;-141.28;100.00;49788.53;5113647;28;20227;-77
2022/11/08 08:11:45;;;;;;;60.87;34.20;;;;;;;-141.28;100.00;49806.19;5114096;28;20195;-80
2022/11/08 08:14:12;;;;;;;54.50;32.37;;;;;;;-141.28;100.00;49835.63;5114032;28;20259;-79
2022/11/08 08:16:39;;;;;;;49.50;31.50;;;;;;;-141.28;100.00;49819.94;5113770;28;20264;-77
2022/11/08 08:19:06;;;;;;;52.43;30.30;;;;;;;-141.28;100.00;49814.03;5114029;28;20287;-78
2022/11/08 08:21:35;;;;;;;56.70;29.80;;;;;;;-141.28;100.00;49792.44;5113295;28;20203;-79
2022/11/08 08:24:02;;;;;;;49.77;29.17;;;;;;;-141.28;100.00;49784.59;5113750;28;20206;-79
2022/11/08 08:26:29;;;;;;;50.90;28.77;;;;;;;-141.28;100.00;49764.97;5113492;28;20211;-76
2022/11/08 08:28:56;;;;;;;47.13;29.27;;;;;;;-141.28;100.00;49719.84;5113792;28;20739;-78
2022/11/08 08:31:24;;;;;;;45.20;28.33;;;;;;;-141.28;100.00;49729.66;5112825;28;20210;-79
2022/11/08 08:33:51;;;;;;;47.47;28.90;;;;;;;-141.28;100.00;49715.91;5113473;28;20210;-78
2022/11/08 08:36:18;;;;;;;53.77;29.43;;;;;;;-141.28;100.00;49721.81;5113533;28;20219;-75
2022/11/08 08:38:46;;;;;;;44.83;28.30;;;;;;;-141.28;100.00;49690.41;5113858;28;20254;-75
2022/11/08 08:41:14;;;;;;;46.80;27.33;;;;;;;-141.28;100.00;49690.41;5113281;28;20242;-77
2022/11/08 08:43:41;;;;;;;49.90;29.43;;;;;;;-141.28;100.00;49660.97;5113663;28;20203;-79
2022/11/08 08:46:08;;;;;;;51.17;29.87;;;;;;;-141.28;100.00;49674.72;5113507;28;20206;-76
2022/11/08 08:48:37;;;;;;;48.63;27.67;;;;;;;-141.28;100.00;49627.59;5113061;28;20202;-80
2022/11/08 08:51:05;;;;;;;46.97;29.67;;;;;;;-141.28;100.00;49631.53;5099257;28;20213;-78
2022/11/08 08:53:32;;;;;;;44.57;28.83;;;;;;;-141.28;100.00;49629.56;5113040;28;20191;-76
2022/11/08 08:56:02;;;;;;;50.03;28.67;;;;;;;-141.28;100.00;49615.84;5095436;28;20204;-75
2022/11/08 08:58:29;;;;;;;47.67;29.17;;;;;;;-141.28;100.00;49564.81;5107710;28;20207;-75
2022/11/08 09:01:00;;;;;;;48.43;29.50;;;;;;;-141.28;100.00;49600.13;5112970;28;20226;-77
2022/11/08 09:03:27;;;;;;;46.00;28.10;;;;;;;-141.28;100.00;49619.75;5112944;28;20669;-76
2022/11/08 09:05:57;;;;;;;50.87;29.87;;;;;;;-141.28;100.00;49517.72;5112478;28;20222;-78
2022/11/08 09:08:24;;;;;;;56.10;29.20;;;;;;;-141.28;100.00;49623.69;5112641;28;20214;-76
2022/11/08 09:10:53;;;;;;;50.90;28.90;;;;;;;-141.28;100.00;49639.38;5112571;28;20217;-77
2022/11/08 09:13:23;;;;;;;47.57;29.43;;;;;;;-141.28;100.00;49643.31;5112540;28;20661;-78
2022/11/08 09:15:50;;;;;;;48.20;28.80;;;;;;;-141.28;100.00;49647.22;5112293;28;20262;-78
2022/11/08 09:18:18;;;;;;;50.87;27.97;;;;;;;-141.28;100.00;49768.91;5112313;28;20590;-75
2022/11/08 09:20:46;;;;;;;46.83;27.87;;;;;;;-141.28;100.00;49676.66;5113455;28;20250;-75
2022/11/08 09:23:15;;;;;;;47.20;26.53;;;;;;;-141.28;100.00;49713.94;5113904;28;20199;-77
2022/11/08 09:25:42;;;;;;;42.00;25.60;;;;;;;-141.28;100.00;49745.34;5107298;28;20223;-77
2022/11/08 09:28:10;;;;;;;46.17;26.07;;;;;;;-141.28;100.00;49772.81;5105531;28;20596;-76
2022/11/08 09:30:38;;;;;;;46.17;26.33;;;;;;;-141.28;100.00;49780.69;5110907;28;20591;-76
2022/11/08 09:33:06;;;;;;;40.07;24.33;;;;;;;-141.28;100.00;49816.00;5111927;28;20195;-77
2022/11/08 09:35:32;;;;;;;44.37;24.00;;;;;;;-141.28;100.00;49831.69;5112298;28;20199;-76
2022/11/08 09:37:59;;;;;;;46.17;25.17;;;;;;;-141.28;100.00;49849.38;5092388;28;20292;-77
2022/11/08 09:40:33;;;;;;;39.33;24.23;;;;;;;-141.28;100.00;49849.38;5106458;28;20234;-76
2022/11/08 09:43:14;;;;;;;42.23;24.47;;;;;;;-141.28;100.00;49849.38;5112536;28;20198;-77
2022/11/08 09:45:46;;;;;;;41.80;24.37;;;;;;;-141.28;100.00;49841.50;5112241;28;20223;-77
2022/11/08 09:48:22;;;;;;;41.27;25.10;;;;;;;-141.28;100.00;49819.94;5112634;28;20259;-79
2022/11/08 09:50:52;;;;;;;41.03;24.87;;;;;;;-141.28;100.00;49847.41;5112462;28;20613;-79
2022/11/08 09:53:26;;;;;;;40.80;24.17;;;;;;;-141.28;100.00;49843.47;5111897;28;20662;-76
2022/11/08 09:55:57;;;;;;;39.87;22.33;;;;;;;-141.28;100.00;49851.31;5112556;28;20199;-79
2022/11/08 09:58:32;;;;;;;34.23;22.70;;;;;;;-141.28;100.00;49861.13;5112584;28;20203;-76
2022/11/08 10:01:01;;;;;;;36.17;22.13;;;;;;;-141.28;100.00;49774.78;5111999;28;20692;-76
2022/11/08 10:03:29;;;;;;;42.37;22.53;;;;;;;-141.28;100.00;49898.44;5111759;28;20199;-79
2022/11/08 10:06:34;;;;;;;35.53;21.63;;;;;;;-141.28;100.00;49898.44;5111851;28;20199;-78
2022/11/08 10:09:09;;;;;;;36.47;20.83;;;;;;;-141.28;100.00;49855.25;5110902;28;20219;-77
2022/11/08 10:11:53;;;;;;;39.77;22.60;;;;;;;-141.28;100.00;49833.66;5111242;28;20290;-78
2022/11/08 10:14:35;;;;;;;31.97;21.33;;;;;;;-141.28;100.00;49933.75;5111684;28;20203;-76
2022/11/08 10:17:32;;;;;;;36.00;20.60;;;;;;;-141.28;100.00;49876.84;5109969;28;20230;-76
2022/11/08 10:20:13;;;;;;;33.20;21.30;;;;;;;-141.28;100.00;49894.50;5111847;28;20689;-78
2022/11/08 10:22:47;;;;;;;36.87;20.40;;;;;;;-141.28;100.00;49900.38;5111984;28;20205;-78
2022/11/08 10:25:20;;;;;;;31.40;20.27;;;;;;;-141.28;100.00;49920.00;5111753;28;20208;-77
2022/11/08 10:27:47;;;;;;;38.87;21.07;;;;;;;-141.28;100.00;49914.13;5116598;28;20205;-75
2022/11/08 10:30:19;;;;;;;35.03;20.20;;;;;;;-141.28;100.00;49957.31;5116894;28;20198;-77
2022/11/08 10:32:53;;;;;;;31.47;19.77;;;;;;;-141.28;100.00;49973.00;5115117;28;20281;-80
2022/11/08 10:35:25;;;;;;;31.53;19.60;;;;;;;-141.28;100.00;50055.44;5113243;28;20214;-76
2022/11/08 10:37:55;;;;;;;45.00;20.90;;;;;;;-141.28;100.00;50047.59;5112386;28;20209;-75
2022/11/08 10:40:36;;;;;;;32.27;19.53;;;;;;;-141.28;100.00;50078.97;5102530;28;20285;-75
2022/11/08 10:43:10;;;;;;;30.63;19.70;;;;;;;-141.28;100.00;50102.53;5110085;28;20290;-76
2022/11/08 10:45:38;;;;;;;31.73;19.20;;;;;;;-141.28;100.00;50090.75;5112103;28;20198;-76
2022/11/08 10:48:07;;;;;;;34.73;20.10;;;;;;;-141.28;100.00;50210.47;5111558;28;20692;-76
2022/11/08 10:50:43;;;;;;;30.20;19.80;;;;;;;-141.28;100.00;50200.66;5111623;28;20210;-77
2022/11/08 10:53:17;;;;;;;31.50;20.90;;;;;;;-141.28;100.00;50271.31;5112103;28;20651;-77
2022/11/08 10:55:52;;;;;;;29.83;19.60;;;;;;;-141.28;100.00;50683.53;5111310;28;20207;-77
2022/11/08 10:58:32;;;;;;;30.63;19.70;;;;;;;-141.28;100.00;50944.63;5111591;28;20198;-77
2022/11/08 11:01:01;;;;;;;29.23;19.97;;;;;;;-141.28;100.00;50899.47;5110824;28;20222;-80
2022/11/08 11:03:32;;;;;;;28.23;19.73;;;;;;;-141.28;100.00;50887.69;5111467;28;20669;-78
2022/11/08 11:06:00;;;;;;;35.37;20.27;;;;;;;-141.28;100.00;50887.69;5111004;28;20546;-79
2022/11/08 11:08:28;;;;;;;36.03;20.03;;;;;;;-141.28;100.00;50968.19;5111424;28;20203;-75
2022/11/08 11:10:55;;;;;;;34.87;20.27;;;;;;;-141.28;100.00;51119.34;5111378;28;20217;-80
2022/11/08 11:13:24;;;;;;;33.83;18.67;;;;;;;-141.28;100.00;51394.22;5111082;28;20263;-76
2022/11/08 11:15:53;;;;;;;36.23;19.90;;;;;;;-141.28;100.00;51641.59;5111199;28;20235;-75
2022/11/08 11:18:25;;;;;;;32.33;19.23;;;;;;;-141.28;100.00;51851.72;5111183;28;20195;-76
2022/11/08 11:21:02;;;;;;;31.43;18.27;;;;;;;-141.28;100.00;51991.13;5110906;28;20292;-76